createdAt,value
2024-05-09T00:00:40.850Z,1016.13
2024-05-09T00:01:39.439Z,1016.14
2024-05-09T00:02:39.425Z,1016.15
2024-05-09T00:03:39.483Z,1016.15
2024-05-09T00:04:39.447Z,1016.14
2024-05-09T00:05:39.442Z,1016.14
2024-05-09T00:06:39.372Z,1016.14
2024-05-09T00:07:39.344Z,1016.13
2024-05-09T00:08:39.343Z,1016.12
2024-05-09T00:09:39.345Z,1016.11
2024-05-09T00:10:40.537Z,1016.11
2024-05-09T00:11:39.351Z,1016.10
2024-05-09T00:12:39.305Z,1016.09
2024-05-09T00:13:39.292Z,1016.09
2024-05-09T00:14:39.298Z,1016.08
2024-05-09T00:15:39.320Z,1016.08
2024-05-09T00:16:39.262Z,1016.08
2024-05-09T00:17:39.632Z,1016.07
2024-05-09T00:18:39.316Z,1016.07
2024-05-09T00:19:39.394Z,1016.06
2024-05-09T00:20:41.066Z,1016.06
2024-05-09T00:21:39.235Z,1016.04
2024-05-09T00:22:39.192Z,1016.03
2024-05-09T00:23:39.342Z,1016.02
2024-05-09T00:24:39.196Z,1016.00
2024-05-09T00:25:39.158Z,1015.99
2024-05-09T00:26:39.164Z,1015.99
2024-05-09T00:27:39.147Z,1015.97
2024-05-09T00:28:39.156Z,1015.95
2024-05-09T00:29:39.173Z,1015.95
2024-05-09T00:30:39.147Z,1015.93
2024-05-09T00:31:39.115Z,1015.92
2024-05-09T00:32:39.209Z,1015.91
2024-05-09T00:33:39.286Z,1015.90
2024-05-09T00:34:39.080Z,1015.90
2024-05-09T00:35:39.368Z,1015.90
2024-05-09T00:36:39.038Z,1015.89
2024-05-09T00:37:39.049Z,1015.89
2024-05-09T00:38:39.060Z,1015.89
2024-05-09T00:39:39.017Z,1015.88
2024-05-09T00:40:41.672Z,1015.88
2024-05-09T00:41:39.029Z,1015.88
2024-05-09T00:42:38.996Z,1015.88
2024-05-09T00:43:38.995Z,1015.88
2024-05-09T00:44:39.029Z,1015.88
2024-05-09T00:45:39.025Z,1015.85
2024-05-09T00:46:38.958Z,1015.86
2024-05-09T00:47:39.016Z,1015.85
2024-05-09T00:48:39.083Z,1015.84
2024-05-09T00:49:38.977Z,1015.83
2024-05-09T00:50:39.139Z,1015.83
2024-05-09T00:51:38.970Z,1015.83
2024-05-09T00:52:38.876Z,1015.83
2024-05-09T00:53:39.049Z,1015.83
2024-05-09T00:54:38.848Z,1015.83
2024-05-09T00:55:38.976Z,1015.83
2024-05-09T00:56:39.550Z,1015.83
2024-05-09T00:57:38.815Z,1015.83
2024-05-09T00:58:38.828Z,1015.83
2024-05-09T00:59:38.900Z,1015.82
2024-05-09T01:00:40.820Z,1015.83
2024-05-09T01:01:38.980Z,1015.83
2024-05-09T01:02:38.874Z,1015.83
2024-05-09T01:03:39.033Z,1015.82
2024-05-09T01:04:38.778Z,1015.81
2024-05-09T01:05:38.947Z,1015.81
2024-05-09T01:06:38.721Z,1015.80
2024-05-09T01:07:38.747Z,1015.80
2024-05-09T01:08:38.893Z,1015.80
2024-05-09T01:09:38.738Z,1015.79
2024-05-09T01:10:39.543Z,1015.79
2024-05-09T01:11:38.840Z,1015.78
2024-05-09T01:12:38.743Z,1015.79
2024-05-09T01:13:38.683Z,1015.79
2024-05-09T01:14:38.699Z,1015.79
2024-05-09T01:15:38.626Z,1015.79
2024-05-09T01:16:38.625Z,1015.79
2024-05-09T01:17:38.779Z,1015.80
2024-05-09T01:18:38.687Z,1015.81
2024-05-09T01:19:38.865Z,1015.81
2024-05-09T01:20:42.430Z,1015.80
2024-05-09T01:21:38.571Z,1015.79
2024-05-09T01:22:38.573Z,1015.79
2024-05-09T01:23:38.647Z,1015.79
2024-05-09T01:24:38.574Z,1015.78
2024-05-09T01:25:38.572Z,1015.77
2024-05-09T01:26:38.580Z,1015.77
2024-05-09T01:27:38.536Z,1015.77
2024-05-09T01:28:38.507Z,1015.75
2024-05-09T01:29:38.577Z,1015.75
2024-05-09T01:30:38.869Z,1015.75
2024-05-09T01:31:38.500Z,1015.76
2024-05-09T01:32:38.549Z,1015.76
2024-05-09T01:33:38.774Z,1015.76
2024-05-09T01:34:38.436Z,1015.76
2024-05-09T01:35:38.530Z,1015.76
2024-05-09T01:36:38.375Z,1015.76
2024-05-09T01:37:38.401Z,1015.75
2024-05-09T01:38:38.440Z,1015.75
2024-05-09T01:39:38.419Z,1015.76
2024-05-09T01:40:40.142Z,1015.76
2024-05-09T01:41:38.432Z,1015.75
2024-05-09T01:42:38.372Z,1015.74
2024-05-09T01:43:38.338Z,1015.73
2024-05-09T01:44:38.420Z,1015.71
2024-05-09T01:45:38.360Z,1015.71
2024-05-09T01:46:38.316Z,1015.71
2024-05-09T01:47:38.475Z,1015.72
2024-05-09T01:48:38.407Z,1015.71
2024-05-09T01:49:38.330Z,1015.71
2024-05-09T01:50:41.455Z,1015.71
2024-05-09T01:51:38.283Z,1015.71
2024-05-09T01:52:38.259Z,1015.71
2024-05-09T01:53:38.319Z,1015.72
2024-05-09T01:54:38.240Z,1015.72
2024-05-09T01:55:38.387Z,1015.73
2024-05-09T01:56:38.215Z,1015.73
2024-05-09T01:57:38.197Z,1015.74
2024-05-09T01:58:38.178Z,1015.73
2024-05-09T01:59:38.224Z,1015.75
2024-05-09T02:00:41.424Z,1015.76
2024-05-09T02:01:55.776Z,1015.77
2024-05-09T02:02:38.283Z,1015.79
2024-05-09T02:03:38.284Z,1015.78
2024-05-09T02:04:38.181Z,1015.78
2024-05-09T02:05:38.248Z,1015.77
2024-05-09T02:06:38.140Z,1015.76
2024-05-09T02:07:38.100Z,1015.75
2024-05-09T02:08:38.190Z,1015.74
2024-05-09T02:09:38.100Z,1015.73
2024-05-09T02:10:38.080Z,1015.73
2024-05-09T02:11:38.134Z,1015.73
2024-05-09T02:12:38.052Z,1015.73
2024-05-09T02:13:38.036Z,1015.74
2024-05-09T02:14:38.044Z,1015.74
2024-05-09T02:15:38.040Z,1015.74
2024-05-09T02:16:37.993Z,1015.76
2024-05-09T02:17:38.222Z,1015.75
2024-05-09T02:18:38.135Z,1015.75
2024-05-09T02:19:37.991Z,1015.75
2024-05-09T02:20:38.030Z,1015.75
2024-05-09T02:21:37.984Z,1015.75
2024-05-09T02:22:37.940Z,1015.75
2024-05-09T02:23:38.032Z,1015.74
2024-05-09T02:24:37.930Z,1015.73
2024-05-09T02:25:37.929Z,1015.72
2024-05-09T02:26:37.902Z,1015.71
2024-05-09T02:27:37.898Z,1015.71
2024-05-09T02:28:37.892Z,1015.72
2024-05-09T02:29:37.998Z,1015.70
2024-05-09T02:30:40.962Z,1015.71
2024-05-09T02:31:37.850Z,1015.71
2024-05-09T02:32:38.081Z,1015.70
2024-05-09T02:33:38.173Z,1015.71
2024-05-09T02:34:37.849Z,1015.70
2024-05-09T02:35:37.876Z,1015.70
2024-05-09T02:36:37.807Z,1015.70
2024-05-09T02:37:37.779Z,1015.70
2024-05-09T02:38:37.877Z,1015.70
2024-05-09T02:39:37.780Z,1015.70
2024-05-09T02:40:39.470Z,1015.70
2024-05-09T02:41:37.809Z,1015.71
2024-05-09T02:42:37.736Z,1015.71
2024-05-09T02:43:37.709Z,1015.71
2024-05-09T02:44:37.785Z,1015.71
2024-05-09T02:45:37.720Z,1015.71
2024-05-09T02:46:37.685Z,1015.70
2024-05-09T02:47:37.860Z,1015.70
2024-05-09T02:48:37.759Z,1015.69
2024-05-09T02:49:37.712Z,1015.69
2024-05-09T02:50:39.709Z,1015.68
2024-05-09T02:51:37.647Z,1015.69
2024-05-09T02:52:37.627Z,1015.69
2024-05-09T02:53:37.716Z,1015.69
2024-05-09T02:54:37.612Z,1015.68
2024-05-09T02:55:37.623Z,1015.68
2024-05-09T02:56:37.637Z,1015.67
2024-05-09T02:57:37.582Z,1015.67
2024-05-09T02:58:37.573Z,1015.66
2024-05-09T02:59:37.591Z,1015.66
2024-05-09T03:00:40.780Z,1015.65
2024-05-09T03:01:37.614Z,1015.63
2024-05-09T03:02:37.595Z,1015.63
2024-05-09T03:03:37.762Z,1015.61
2024-05-09T03:04:44.318Z,1015.61
2024-05-09T03:05:37.624Z,1015.59
2024-05-09T03:06:37.502Z,1015.58
2024-05-09T03:07:37.587Z,1015.57
2024-05-09T03:08:37.587Z,1015.57
2024-05-09T03:09:37.483Z,1015.56
2024-05-09T03:10:38.992Z,1015.56
2024-05-09T03:11:37.520Z,1015.55
2024-05-09T03:12:39.207Z,1015.55
2024-05-09T03:13:37.452Z,1015.55
2024-05-09T03:14:37.419Z,1015.54
2024-05-09T03:15:37.458Z,1015.54
2024-05-09T03:16:37.340Z,1015.53
2024-05-09T03:17:37.526Z,1015.54
2024-05-09T03:18:37.487Z,1015.52
2024-05-09T03:19:37.522Z,1015.51
2024-05-09T03:20:37.516Z,1015.51
2024-05-09T03:21:37.291Z,1015.50
2024-05-09T03:22:37.268Z,1015.50
2024-05-09T03:23:37.270Z,1015.50
2024-05-09T03:24:37.256Z,1015.49
2024-05-09T03:25:37.251Z,1015.50
2024-05-09T03:26:37.272Z,1015.50
2024-05-09T03:27:37.224Z,1015.50
2024-05-09T03:28:37.205Z,1015.51
2024-05-09T03:29:37.220Z,1015.51
2024-05-09T03:30:41.874Z,1015.51
2024-05-09T03:31:37.207Z,1015.51
2024-05-09T03:32:37.326Z,1015.51
2024-05-09T03:33:37.685Z,1015.51
2024-05-09T03:34:37.140Z,1015.50
2024-05-09T03:35:37.175Z,1015.51
2024-05-09T03:36:37.104Z,1015.50
2024-05-09T03:37:37.107Z,1015.50
2024-05-09T03:38:37.285Z,1015.50
2024-05-09T03:39:37.090Z,1015.49
2024-05-09T03:40:37.078Z,1015.50
2024-05-09T03:41:37.260Z,1015.50
2024-05-09T03:42:37.050Z,1015.50
2024-05-09T03:43:37.041Z,1015.51
2024-05-09T03:44:37.121Z,1015.50
2024-05-09T03:45:37.017Z,1015.49
2024-05-09T03:46:37.009Z,1015.49
2024-05-09T03:47:37.165Z,1015.49
2024-05-09T03:48:37.060Z,1015.48
2024-05-09T03:49:37.080Z,1015.48
2024-05-09T03:50:37.563Z,1015.47
2024-05-09T03:51:36.955Z,1015.48
2024-05-09T03:52:36.957Z,1015.48
2024-05-09T03:53:36.943Z,1015.48
2024-05-09T03:54:36.937Z,1015.48
2024-05-09T03:55:36.911Z,1015.49
2024-05-09T03:56:36.981Z,1015.49
2024-05-09T03:57:36.898Z,1015.49
2024-05-09T03:58:36.880Z,1015.50
2024-05-09T03:59:37.006Z,1015.50
2024-05-09T04:00:39.404Z,1015.50
2024-05-09T04:01:36.952Z,1015.51
2024-05-09T04:02:36.972Z,1015.51
2024-05-09T04:03:36.967Z,1015.50
2024-05-09T04:04:36.959Z,1015.51
2024-05-09T04:05:36.907Z,1015.51
2024-05-09T04:06:36.812Z,1015.51
2024-05-09T04:07:36.793Z,1015.50
2024-05-09T04:08:36.823Z,1015.50
2024-05-09T04:09:36.795Z,1015.48
2024-05-09T04:10:36.762Z,1015.49
2024-05-09T04:11:36.845Z,1015.50
2024-05-09T04:12:36.767Z,1015.50
2024-05-09T04:13:36.720Z,1015.51
2024-05-09T04:14:36.770Z,1015.52
2024-05-09T04:15:36.701Z,1015.52
2024-05-09T04:16:36.694Z,1015.51
2024-05-09T04:17:36.860Z,1015.50
2024-05-09T04:18:36.766Z,1015.50
2024-05-09T04:19:36.729Z,1015.50
2024-05-09T04:20:39.742Z,1015.49
2024-05-09T04:21:36.635Z,1015.48
2024-05-09T04:22:36.649Z,1015.49
2024-05-09T04:23:36.701Z,1015.49
2024-05-09T04:24:36.604Z,1015.50
2024-05-09T04:25:36.673Z,1015.51
2024-05-09T04:26:36.636Z,1015.52
2024-05-09T04:27:36.581Z,1015.53
2024-05-09T04:28:36.569Z,1015.54
2024-05-09T04:29:36.587Z,1015.55
2024-05-09T04:30:39.630Z,1015.56
2024-05-09T04:31:36.559Z,1015.58
2024-05-09T04:32:36.600Z,1015.60
2024-05-09T04:33:36.668Z,1015.61
2024-05-09T04:34:36.543Z,1015.61
2024-05-09T04:35:36.609Z,1015.63
2024-05-09T04:36:36.513Z,1015.62
2024-05-09T04:37:36.496Z,1015.62
2024-05-09T04:38:36.606Z,1015.61
2024-05-09T04:39:36.505Z,1015.60
2024-05-09T04:40:37.557Z,1015.60
2024-05-09T04:41:36.535Z,1015.60
2024-05-09T04:42:36.427Z,1015.61
2024-05-09T04:43:36.411Z,1015.62
2024-05-09T04:44:36.494Z,1015.63
2024-05-09T04:45:36.407Z,1015.63
2024-05-09T04:46:36.404Z,1015.64
2024-05-09T04:47:36.445Z,1015.64
2024-05-09T04:48:36.525Z,1015.65
2024-05-09T04:49:36.417Z,1015.66
2024-05-09T04:50:38.863Z,1015.67
2024-05-09T04:51:36.349Z,1015.67
2024-05-09T04:52:36.313Z,1015.67
2024-05-09T04:53:36.430Z,1015.67
2024-05-09T04:54:36.866Z,1015.67
2024-05-09T04:55:36.348Z,1015.66
2024-05-09T04:56:36.395Z,1015.67
2024-05-09T04:57:36.287Z,1015.66
2024-05-09T04:58:36.258Z,1015.65
2024-05-09T04:59:36.318Z,1015.66
2024-05-09T05:00:38.224Z,1015.66
2024-05-09T05:01:36.318Z,1015.66
2024-05-09T05:02:36.264Z,1015.67
2024-05-09T05:03:36.299Z,1015.68
2024-05-09T05:04:36.297Z,1015.68
2024-05-09T05:05:36.262Z,1015.68
2024-05-09T05:06:36.225Z,1015.68
2024-05-09T05:07:36.163Z,1015.68
2024-05-09T05:08:36.250Z,1015.67
2024-05-09T05:09:36.142Z,1015.67
2024-05-09T05:10:36.974Z,1015.67
2024-05-09T05:11:36.223Z,1015.68
2024-05-09T05:12:36.187Z,1015.68
2024-05-09T05:13:38.658Z,1015.68
2024-05-09T05:14:36.168Z,1015.69
2024-05-09T05:15:36.076Z,1015.70
2024-05-09T05:16:36.087Z,1015.71
2024-05-09T05:17:36.431Z,1015.71
2024-05-09T05:18:36.181Z,1015.72
2024-05-09T05:19:36.182Z,1015.73
2024-05-09T05:20:36.093Z,1015.73
2024-05-09T05:21:36.018Z,1015.73
2024-05-09T05:22:36.031Z,1015.73
2024-05-09T05:23:36.117Z,1015.72
2024-05-09T05:24:35.986Z,1015.72
2024-05-09T05:25:35.975Z,1015.71
2024-05-09T05:26:36.042Z,1015.71
2024-05-09T05:27:35.978Z,1015.70
2024-05-09T05:28:35.958Z,1015.69
2024-05-09T05:29:36.007Z,1015.68
2024-05-09T05:30:35.926Z,1015.68
2024-05-09T05:31:35.951Z,1015.68
2024-05-09T05:32:36.071Z,1015.68
2024-05-09T05:33:35.956Z,1015.68
2024-05-09T05:34:35.889Z,1015.68
2024-05-09T05:35:35.931Z,1015.68
2024-05-09T05:36:35.860Z,1015.67
2024-05-09T05:37:35.851Z,1015.67
2024-05-09T05:38:35.954Z,1015.67
2024-05-09T05:39:35.843Z,1015.67
2024-05-09T05:40:37.911Z,1015.66
2024-05-09T05:41:35.883Z,1015.67
2024-05-09T05:42:35.804Z,1015.66
2024-05-09T05:43:35.792Z,1015.66
2024-05-09T05:44:35.834Z,1015.65
2024-05-09T05:45:35.774Z,1015.65
2024-05-09T05:46:35.781Z,1015.65
2024-05-09T05:47:35.882Z,1015.64
2024-05-09T05:48:35.827Z,1015.64
2024-05-09T05:49:35.830Z,1015.64
2024-05-09T05:50:37.794Z,1015.65
2024-05-09T05:51:35.737Z,1015.65
2024-05-09T05:52:35.700Z,1015.65
2024-05-09T05:53:35.867Z,1015.65
2024-05-09T05:54:35.682Z,1015.65
2024-05-09T05:55:35.678Z,1015.65
2024-05-09T05:56:35.778Z,1015.65
2024-05-09T05:57:35.648Z,1015.66
2024-05-09T05:58:35.668Z,1015.67
2024-05-09T05:59:35.690Z,1015.67
2024-05-09T06:00:39.008Z,1015.68
2024-05-09T06:01:35.642Z,1015.68
2024-05-09T06:02:35.692Z,1015.68
2024-05-09T06:03:35.636Z,1015.69
2024-05-09T06:04:35.629Z,1015.68
2024-05-09T06:05:35.783Z,1015.67
2024-05-09T06:06:35.617Z,1015.67
2024-05-09T06:07:35.567Z,1015.65
2024-05-09T06:08:35.586Z,1015.65
2024-05-09T06:09:35.511Z,1015.64
2024-05-09T06:10:39.342Z,1015.64
2024-05-09T06:11:35.601Z,1015.64
2024-05-09T06:12:35.493Z,1015.64
2024-05-09T06:13:35.479Z,1015.64
2024-05-09T06:14:35.583Z,1015.65
2024-05-09T06:15:35.490Z,1015.64
2024-05-09T06:16:35.476Z,1015.63
2024-05-09T06:17:35.692Z,1015.64
2024-05-09T06:18:35.787Z,1015.63
2024-05-09T06:19:35.538Z,1015.63
2024-05-09T06:20:37.871Z,1015.63
2024-05-09T06:21:35.421Z,1015.63
2024-05-09T06:22:35.438Z,1015.62
2024-05-09T06:23:35.540Z,1015.62
2024-05-09T06:24:35.437Z,1015.63
2024-05-09T06:25:35.809Z,1015.63
2024-05-09T06:26:35.471Z,1015.62
2024-05-09T06:27:35.321Z,1015.61
2024-05-09T06:28:35.360Z,1015.60
2024-05-09T06:29:35.351Z,1015.60
2024-05-09T06:30:39.679Z,1015.59
2024-05-09T06:31:35.360Z,1015.59
2024-05-09T06:32:35.519Z,1015.60
2024-05-09T06:33:35.486Z,1015.60
2024-05-09T06:34:35.360Z,1015.60
2024-05-09T06:35:35.514Z,1015.61
2024-05-09T06:36:35.256Z,1015.62
2024-05-09T06:37:35.255Z,1015.62
2024-05-09T06:38:35.356Z,1015.62
2024-05-09T06:39:35.209Z,1015.62
2024-05-09T06:40:38.535Z,1015.61
2024-05-09T06:41:35.288Z,1015.60
2024-05-09T06:42:35.188Z,1015.60
2024-05-09T06:43:35.189Z,1015.60
2024-05-09T06:44:35.278Z,1015.61
2024-05-09T06:45:35.151Z,1015.62
2024-05-09T06:46:35.154Z,1015.63
2024-05-09T06:47:35.272Z,1015.64
2024-05-09T06:48:35.382Z,1015.65
2024-05-09T06:49:35.139Z,1015.66
2024-05-09T06:50:38.002Z,1015.67
2024-05-09T06:51:35.082Z,1015.67
2024-05-09T06:52:35.076Z,1015.67
2024-05-09T06:53:35.212Z,1015.67
2024-05-09T06:54:35.048Z,1015.68
2024-05-09T06:55:35.037Z,1015.69
2024-05-09T06:56:35.056Z,1015.70
2024-05-09T06:57:35.021Z,1015.71
2024-05-09T06:58:35.032Z,1015.70
2024-05-09T06:59:35.065Z,1015.70
2024-05-09T07:00:39.317Z,1015.69
2024-05-09T07:01:35.023Z,1015.70
2024-05-09T07:02:35.116Z,1015.70
2024-05-09T07:03:35.179Z,1015.70
2024-05-09T07:04:35.036Z,1015.69
2024-05-09T07:05:34.974Z,1015.68
2024-05-09T07:06:34.924Z,1015.68
2024-05-09T07:07:34.912Z,1015.68
2024-05-09T07:08:35.072Z,1015.69
2024-05-09T07:09:34.902Z,1015.69
2024-05-09T07:10:36.181Z,1015.69
2024-05-09T07:11:34.957Z,1015.69
2024-05-09T07:12:34.975Z,1015.69
2024-05-09T07:13:34.847Z,1015.69
2024-05-09T07:14:36.928Z,1015.69
2024-05-09T07:15:34.860Z,1015.70
2024-05-09T07:16:34.823Z,1015.72
2024-05-09T07:17:34.963Z,1015.72
2024-05-09T07:18:34.933Z,1015.73
2024-05-09T07:19:34.845Z,1015.73
2024-05-09T07:20:35.325Z,1015.73
2024-05-09T07:21:34.763Z,1015.73
2024-05-09T07:22:34.755Z,1015.73
2024-05-09T07:23:34.924Z,1015.74
2024-05-09T07:24:34.777Z,1015.74
2024-05-09T07:25:34.731Z,1015.74
2024-05-09T07:26:34.820Z,1015.74
2024-05-09T07:27:34.698Z,1015.74
2024-05-09T07:28:34.712Z,1015.74
2024-05-09T07:29:37.873Z,1015.74
2024-05-09T07:30:35.245Z,1015.75
2024-05-09T07:31:34.692Z,1015.74
2024-05-09T07:32:34.749Z,1015.75
2024-05-09T07:33:34.668Z,1015.75
2024-05-09T07:34:34.756Z,1015.75
2024-05-09T07:35:34.881Z,1015.74
2024-05-09T07:36:34.604Z,1015.76
2024-05-09T07:37:34.583Z,1015.77
2024-05-09T07:38:34.584Z,1015.76
2024-05-09T07:39:34.571Z,1015.77
2024-05-09T07:40:36.651Z,1015.77
2024-05-09T07:41:34.606Z,1015.77
2024-05-09T07:42:34.538Z,1015.77
2024-05-09T07:43:34.522Z,1015.78
2024-05-09T07:44:34.575Z,1015.78
2024-05-09T07:48:57.855Z,1015.81
2024-05-09T07:53:20.363Z,1015.78
2024-05-09T07:53:46.214Z,1015.77
2024-05-09T07:53:57.256Z,1015.76
2024-05-09T07:54:53.476Z,1015.76
2024-05-09T07:55:53.490Z,1015.76
2024-05-09T07:56:53.518Z,1015.75
2024-05-09T07:57:53.320Z,1015.76
2024-05-09T07:58:53.353Z,1015.74
2024-05-09T07:59:53.216Z,1015.76
2024-05-09T08:00:53.328Z,1015.75
2024-05-09T08:01:53.330Z,1015.75
2024-05-09T08:02:53.244Z,1015.73
2024-05-09T08:03:53.565Z,1015.72
2024-05-09T08:04:53.291Z,1015.71
2024-05-09T08:05:53.371Z,1015.72
2024-05-09T08:06:53.194Z,1015.70
2024-05-09T08:07:53.162Z,1015.73
2024-05-09T08:08:53.147Z,1015.71
2024-05-09T08:09:53.293Z,1015.70
2024-05-09T08:10:53.241Z,1015.70
2024-05-09T08:11:53.164Z,1015.70
2024-05-09T08:12:53.331Z,1015.69
2024-05-09T08:13:53.068Z,1015.68
2024-05-09T08:14:53.077Z,1015.66
2024-05-09T08:15:53.183Z,1015.65
2024-05-09T08:16:53.146Z,1015.65
2024-05-09T08:17:53.181Z,1015.65
2024-05-09T08:18:53.119Z,1015.67
2024-05-09T08:19:53.040Z,1015.67
2024-05-09T08:20:52.998Z,1015.65
2024-05-09T08:21:52.981Z,1015.65
2024-05-09T08:22:53.089Z,1015.66
2024-05-09T08:23:52.985Z,1015.66
2024-05-09T08:24:53.117Z,1015.67
2024-05-09T08:25:52.971Z,1015.68
2024-05-09T08:26:52.921Z,1015.68
2024-05-09T08:27:53.083Z,1015.67
2024-05-09T08:28:52.907Z,1015.68
2024-05-09T08:29:52.928Z,1015.68
2024-05-09T08:30:53.012Z,1015.69
2024-05-09T08:31:52.900Z,1015.70
2024-05-09T08:32:52.998Z,1015.70
2024-05-09T08:33:53.171Z,1015.70
2024-05-09T08:34:52.899Z,1015.69
2024-05-09T08:35:52.847Z,1015.70
2024-05-09T08:36:52.876Z,1015.71
2024-05-09T08:37:52.844Z,1015.70
2024-05-09T08:38:52.823Z,1015.69
2024-05-09T08:39:52.898Z,1015.70
2024-05-09T08:40:52.802Z,1015.70
2024-05-09T08:41:52.756Z,1015.69
2024-05-09T08:42:52.962Z,1015.67
2024-05-09T08:43:52.742Z,1015.66
2024-05-09T08:44:52.741Z,1015.64
2024-05-09T08:45:52.759Z,1015.63
2024-05-09T08:46:52.731Z,1015.63
2024-05-09T08:47:52.859Z,1015.62
2024-05-09T08:48:52.890Z,1015.63
2024-05-09T08:49:52.833Z,1015.61
2024-05-09T08:50:52.906Z,1015.61
2024-05-09T08:51:52.710Z,1015.63
2024-05-09T08:52:52.711Z,1015.64
2024-05-09T08:53:52.698Z,1015.64
2024-05-09T08:54:52.760Z,1015.64
2024-05-09T08:55:52.725Z,1015.62
2024-05-09T08:56:52.669Z,1015.62
2024-05-09T08:57:52.780Z,1015.61
2024-05-09T09:00:35.592Z,1015.61
2024-05-09T09:01:28.054Z,1015.61
2024-05-09T09:02:28.110Z,1015.61
2024-05-09T09:03:28.065Z,1015.63
2024-05-09T09:04:27.974Z,1015.61
2024-05-09T09:05:28.116Z,1015.61
2024-05-09T09:06:27.984Z,1015.60
2024-05-09T09:07:27.879Z,1015.61
2024-05-09T09:08:27.852Z,1015.60
2024-05-09T09:09:27.931Z,1015.61
2024-05-09T09:10:32.068Z,1015.60
2024-05-09T09:11:27.886Z,1015.60
2024-05-09T09:12:27.866Z,1015.60
2024-05-09T09:13:27.798Z,1015.60
2024-05-09T09:14:27.805Z,1015.60
2024-05-09T09:15:28.030Z,1015.59
2024-05-09T09:16:27.927Z,1015.61
2024-05-09T09:17:27.789Z,1015.59
2024-05-09T09:18:28.099Z,1015.56
2024-05-09T09:19:27.811Z,1015.57
2024-05-09T09:20:35.361Z,1015.56
2024-05-09T09:21:27.732Z,1015.56
2024-05-09T09:22:27.759Z,1015.54
2024-05-09T09:23:27.710Z,1015.54
2024-05-09T09:24:27.716Z,1015.54
2024-05-09T09:25:27.672Z,1015.54
2024-05-09T09:26:27.635Z,1015.56
2024-05-09T09:27:27.687Z,1015.56
2024-05-09T09:28:27.629Z,1015.56
2024-05-09T09:29:27.642Z,1015.56
2024-05-09T09:30:35.263Z,1015.57
2024-05-09T09:31:27.747Z,1015.56
2024-05-09T09:32:27.665Z,1015.55
2024-05-09T09:33:27.974Z,1015.54
2024-05-09T09:34:27.733Z,1015.52
2024-05-09T09:35:27.563Z,1015.51
2024-05-09T09:36:27.650Z,1015.50
2024-05-09T09:37:27.596Z,1015.50
2024-05-09T09:38:27.529Z,1015.49
2024-05-09T09:39:27.553Z,1015.48
2024-05-09T09:40:32.141Z,1015.46
2024-05-09T09:41:27.503Z,1015.45
2024-05-09T09:42:27.575Z,1015.44
2024-05-09T09:43:27.496Z,1015.42
2024-05-09T09:44:27.465Z,1015.40
2024-05-09T09:45:27.483Z,1015.40
2024-05-09T09:46:27.529Z,1015.40
2024-05-09T09:47:27.540Z,1015.41
2024-05-09T09:48:27.478Z,1015.41
2024-05-09T09:49:27.496Z,1015.39
2024-05-09T09:50:33.735Z,1015.38
2024-05-09T09:51:27.444Z,1015.40
2024-05-09T09:52:27.378Z,1015.39
2024-05-09T09:53:27.392Z,1015.38
2024-05-09T09:54:27.413Z,1015.40
2024-05-09T09:55:27.410Z,1015.39
2024-05-09T09:56:27.340Z,1015.41
2024-05-09T09:57:27.418Z,1015.39
2024-05-09T09:58:27.537Z,1015.36
2024-05-09T09:59:27.314Z,1015.36
2024-05-09T10:00:32.522Z,1015.40
2024-05-09T10:01:27.376Z,1015.35
2024-05-09T10:02:27.336Z,1015.35
2024-05-09T10:03:27.594Z,1015.35
2024-05-09T10:04:27.304Z,1015.35
2024-05-09T10:05:27.642Z,1015.33
2024-05-09T10:06:27.336Z,1015.31
2024-05-09T10:07:27.212Z,1015.28
2024-05-09T10:08:27.249Z,1015.27
2024-05-09T10:09:27.282Z,1015.26
2024-05-09T10:10:32.093Z,1015.25
2024-05-09T10:11:27.196Z,1015.25
2024-05-09T10:12:27.224Z,1015.25
2024-05-09T10:13:27.204Z,1015.24
2024-05-09T10:14:27.156Z,1015.24
2024-05-09T10:15:27.173Z,1015.22
2024-05-09T10:16:27.219Z,1015.22
2024-05-09T10:17:27.202Z,1015.21
2024-05-09T10:18:29.426Z,1015.19
2024-05-09T10:19:27.203Z,1015.19
2024-05-09T10:20:30.911Z,1015.19
2024-05-09T10:21:27.091Z,1015.18
2024-05-09T10:22:27.104Z,1015.18
2024-05-09T10:23:27.044Z,1015.15
2024-05-09T10:24:27.062Z,1015.15
2024-05-09T10:25:27.061Z,1015.13
2024-05-09T10:26:27.001Z,1015.11
2024-05-09T10:27:27.022Z,1015.10
2024-05-09T10:28:27.008Z,1015.10
2024-05-09T10:29:27.040Z,1015.10
2024-05-09T10:30:33.994Z,1015.08
2024-05-09T10:31:27.001Z,1015.06
2024-05-09T10:32:27.046Z,1015.05
2024-05-09T10:33:27.104Z,1015.04
2024-05-09T10:34:27.049Z,1015.02
2024-05-09T10:35:26.966Z,1015.02
2024-05-09T10:36:26.966Z,1015.01
2024-05-09T10:37:27.020Z,1015.00
2024-05-09T10:38:26.893Z,1015.00
2024-05-09T10:39:26.865Z,1014.96
2024-05-09T10:40:31.344Z,1014.94
2024-05-09T10:41:26.878Z,1014.94
2024-05-09T10:42:26.883Z,1014.95
2024-05-09T10:43:26.864Z,1014.94
2024-05-09T10:44:26.862Z,1014.95
2024-05-09T10:45:26.798Z,1014.96
2024-05-09T10:46:26.841Z,1014.94
2024-05-09T10:47:26.867Z,1014.97
2024-05-09T10:48:26.936Z,1014.96
2024-05-09T10:49:26.844Z,1014.99
2024-05-09T10:50:31.810Z,1014.99
2024-05-09T10:51:26.735Z,1014.98
2024-05-09T10:52:26.831Z,1014.95
2024-05-09T10:53:26.736Z,1014.94
2024-05-09T10:54:26.707Z,1014.94
2024-05-09T10:55:26.749Z,1014.92
2024-05-09T10:56:26.744Z,1014.90
2024-05-09T10:57:26.676Z,1014.89
2024-05-09T10:58:26.684Z,1014.88
2024-05-09T10:59:26.701Z,1014.88
2024-05-09T11:00:30.729Z,1014.85
2024-05-09T11:01:26.736Z,1014.84
2024-05-09T11:02:26.752Z,1014.83
2024-05-09T11:03:26.753Z,1014.84
2024-05-09T11:04:26.696Z,1014.82
2024-05-09T11:05:26.633Z,1014.82
2024-05-09T11:06:26.592Z,1014.81
2024-05-09T11:07:26.663Z,1014.83
2024-05-09T11:08:26.559Z,1014.82
2024-05-09T11:09:26.567Z,1014.83
2024-05-09T11:10:33.524Z,1014.81
2024-05-09T11:11:26.580Z,1014.80
2024-05-09T11:12:26.531Z,1014.78
2024-05-09T11:13:26.495Z,1014.77
2024-05-09T11:14:26.515Z,1014.76
2024-05-09T11:15:26.503Z,1014.75
2024-05-09T11:16:26.551Z,1014.73
2024-05-09T11:17:26.638Z,1014.72
2024-05-09T11:18:28.139Z,1014.70
2024-05-09T11:19:26.561Z,1014.70
2024-05-09T11:20:29.660Z,1014.69
2024-05-09T11:21:26.445Z,1014.65
2024-05-09T11:22:26.443Z,1014.66
2024-05-09T11:23:26.385Z,1014.64
2024-05-09T11:24:26.417Z,1014.67
2024-05-09T11:25:26.417Z,1014.67
2024-05-09T11:26:26.362Z,1014.66
2024-05-09T11:27:26.395Z,1014.63
2024-05-09T11:28:26.415Z,1014.63
2024-05-09T11:29:26.345Z,1014.62
2024-05-09T11:30:31.613Z,1014.62
2024-05-09T11:31:26.493Z,1014.61
2024-05-09T11:32:26.473Z,1014.59
2024-05-09T11:33:26.416Z,1014.58
2024-05-09T11:34:26.410Z,1014.57
2024-05-09T11:35:26.280Z,1014.58
2024-05-09T11:36:26.276Z,1014.55
2024-05-09T11:37:26.337Z,1014.53
2024-05-09T11:38:26.254Z,1014.53
2024-05-09T11:39:26.311Z,1014.52
2024-05-09T11:40:32.331Z,1014.50
2024-05-09T11:41:26.215Z,1014.46
2024-05-09T11:42:26.313Z,1014.45
2024-05-09T11:43:26.226Z,1014.45
2024-05-09T11:44:26.172Z,1014.44
2024-05-09T11:45:26.166Z,1014.44
2024-05-09T11:46:26.449Z,1014.45
2024-05-09T11:47:26.271Z,1014.43
2024-05-09T11:48:26.645Z,1014.42
2024-05-09T11:49:27.156Z,1014.41
2024-05-09T11:50:30.136Z,1014.40
2024-05-09T11:51:26.198Z,1014.41
2024-05-09T11:52:26.141Z,1014.39
2024-05-09T11:53:26.131Z,1014.38
2024-05-09T11:54:26.092Z,1014.37
2024-05-09T11:55:28.154Z,1014.36
2024-05-09T11:56:26.058Z,1014.35
2024-05-09T11:57:26.075Z,1014.33
2024-05-09T11:58:26.117Z,1014.32
2024-05-09T11:59:26.003Z,1014.31
2024-05-09T12:00:33.985Z,1014.27
2024-05-09T12:01:27.928Z,1014.24
2024-05-09T12:02:26.136Z,1014.28
2024-05-09T12:03:26.003Z,1014.27
2024-05-09T12:04:26.159Z,1014.23
2024-05-09T12:05:26.232Z,1014.20
2024-05-09T12:06:26.019Z,1014.21
2024-05-09T12:07:25.972Z,1014.21
2024-05-09T12:08:25.984Z,1014.23
2024-05-09T12:09:25.924Z,1014.23
2024-05-09T12:10:32.317Z,1014.21
2024-05-09T12:11:25.935Z,1014.21
2024-05-09T12:12:25.978Z,1014.19